sensor_id;sensor_type;location;lat;lon;timestamp;P1;durP1;ratioP1;P2;durP2;ratioP2
37483;SDS011;23337;52.212;9.926;2023-07-31T00:00:02;3.03;;;1.03;;
37483;SDS011;23337;52.212;9.926;2023-07-31T00:02:28;2.33;;;1.20;;
37483;SDS011;23337;52.212;9.926;2023-07-31T00:04:53;2.80;;;1.13;;
37483;SDS011;23337;52.212;9.926;2023-07-31T00:07:19;1.97;;;0.77;;
37483;SDS011;23337;52.212;9.926;2023-07-31T00:09:45;3.97;;;1.23;;
37483;SDS011;23337;52.212;9.926;2023-07-31T00:12:11;2.00;;;1.00;;
37483;SDS011;23337;52.212;9.926;2023-07-31T00:14:37;1.77;;;1.00;;
37483;SDS011;23337;52.212;9.926;2023-07-31T00:17:03;1.53;;;1.13;;
37483;SDS011;23337;52.212;9.926;2023-07-31T00:19:29;2.07;;;1.20;;
37483;SDS011;23337;52.212;9.926;2023-07-31T00:21:55;3.93;;;1.30;;
37483;SDS011;23337;52.212;9.926;2023-07-31T00:24:21;2.40;;;1.20;;
37483;SDS011;23337;52.212;9.926;2023-07-31T00:26:47;2.00;;;0.90;;
37483;SDS011;23337;52.212;9.926;2023-07-31T00:29:13;3.10;;;1.03;;
37483;SDS011;23337;52.212;9.926;2023-07-31T00:31:39;2.40;;;1.03;;
37483;SDS011;23337;52.212;9.926;2023-07-31T00:34:05;1.57;;;0.80;;
37483;SDS011;23337;52.212;9.926;2023-07-31T00:36:31;3.33;;;0.73;;
37483;SDS011;23337;52.212;9.926;2023-07-31T00:38:57;1.87;;;0.90;;
37483;SDS011;23337;52.212;9.926;2023-07-31T00:41:23;4.13;;;1.20;;
37483;SDS011;23337;52.212;9.926;2023-07-31T00:43:48;0.70;;;0.70;;
37483;SDS011;23337;52.212;9.926;2023-07-31T00:46:14;1.90;;;1.00;;
37483;SDS011;23337;52.212;9.926;2023-07-31T00:48:40;4.23;;;1.27;;
37483;SDS011;23337;52.212;9.926;2023-07-31T00:51:07;2.83;;;1.10;;
37483;SDS011;23337;52.212;9.926;2023-07-31T00:53:33;5.13;;;1.00;;
37483;SDS011;23337;52.212;9.926;2023-07-31T00:56:00;2.93;;;0.83;;
37483;SDS011;23337;52.212;9.926;2023-07-31T00:58:26;2.57;;;0.73;;
37483;SDS011;23337;52.212;9.926;2023-07-31T01:00:52;1.37;;;0.77;;
37483;SDS011;23337;52.212;9.926;2023-07-31T01:03:18;1.50;;;0.90;;
37483;SDS011;23337;52.212;9.926;2023-07-31T01:05:56;1.47;;;0.93;;
37483;SDS011;23337;52.212;9.926;2023-07-31T01:10:56;2.10;;;0.97;;
37483;SDS011;23337;52.212;9.926;2023-07-31T01:13:26;1.77;;;1.00;;
37483;SDS011;23337;52.212;9.926;2023-07-31T01:15:52;2.23;;;1.00;;
37483;SDS011;23337;52.212;9.926;2023-07-31T01:18:18;1.40;;;0.80;;
37483;SDS011;23337;52.212;9.926;2023-07-31T01:20:44;1.57;;;0.77;;
37483;SDS011;23337;52.212;9.926;2023-07-31T01:28:20;1.53;;;0.80;;
37483;SDS011;23337;52.212;9.926;2023-07-31T01:30:49;0.40;;;0.40;;
37483;SDS011;23337;52.212;9.926;2023-07-31T01:33:16;1.67;;;0.70;;
37483;SDS011;23337;52.212;9.926;2023-07-31T01:35:43;1.33;;;0.33;;
37483;SDS011;23337;52.212;9.926;2023-07-31T01:38:09;1.43;;;0.40;;
37483;SDS011;23337;52.212;9.926;2023-07-31T01:40:35;0.80;;;0.40;;
37483;SDS011;23337;52.212;9.926;2023-07-31T01:43:01;1.00;;;0.50;;
37483;SDS011;23337;52.212;9.926;2023-07-31T01:45:27;0.47;;;0.33;;
37483;SDS011;23337;52.212;9.926;2023-07-31T01:47:53;0.50;;;0.37;;
37483;SDS011;23337;52.212;9.926;2023-07-31T01:50:19;0.70;;;0.40;;
37483;SDS011;23337;52.212;9.926;2023-07-31T01:52:45;0.40;;;0.40;;
37483;SDS011;23337;52.212;9.926;2023-07-31T01:55:11;1.43;;;0.30;;
37483;SDS011;23337;52.212;9.926;2023-07-31T01:57:37;2.37;;;0.40;;
37483;SDS011;23337;52.212;9.926;2023-07-31T02:00:03;1.03;;;0.50;;
37483;SDS011;23337;52.212;9.926;2023-07-31T02:02:30;1.17;;;0.57;;
37483;SDS011;23337;52.212;9.926;2023-07-31T02:04:56;0.37;;;0.30;;
37483;SDS011;23337;52.212;9.926;2023-07-31T02:07:22;0.60;;;0.60;;
37483;SDS011;23337;52.212;9.926;2023-07-31T02:09:48;0.40;;;0.33;;
37483;SDS011;23337;52.212;9.926;2023-07-31T02:12:14;0.57;;;0.47;;
37483;SDS011;23337;52.212;9.926;2023-07-31T02:14:40;0.40;;;0.30;;
37483;SDS011;23337;52.212;9.926;2023-07-31T02:17:06;0.87;;;0.60;;
37483;SDS011;23337;52.212;9.926;2023-07-31T02:19:32;1.10;;;0.40;;
37483;SDS011;23337;52.212;9.926;2023-07-31T02:21:58;0.60;;;0.50;;
37483;SDS011;23337;52.212;9.926;2023-07-31T02:24:24;1.33;;;0.50;;
37483;SDS011;23337;52.212;9.926;2023-07-31T02:26:50;0.53;;;0.30;;
37483;SDS011;23337;52.212;9.926;2023-07-31T02:29:16;1.33;;;0.30;;
37483;SDS011;23337;52.212;9.926;2023-07-31T02:31:42;1.17;;;0.30;;
37483;SDS011;23337;52.212;9.926;2023-07-31T02:34:08;0.70;;;0.57;;
37483;SDS011;23337;52.212;9.926;2023-07-31T02:36:34;1.43;;;0.60;;
37483;SDS011;23337;52.212;9.926;2023-07-31T02:39:00;1.37;;;0.30;;
37483;SDS011;23337;52.212;9.926;2023-07-31T02:41:26;1.40;;;0.40;;
37483;SDS011;23337;52.212;9.926;2023-07-31T02:43:52;0.87;;;0.40;;
37483;SDS011;23337;52.212;9.926;2023-07-31T02:46:18;0.87;;;0.30;;
37483;SDS011;23337;52.212;9.926;2023-07-31T02:48:44;1.10;;;0.30;;
37483;SDS011;23337;52.212;9.926;2023-07-31T02:51:10;0.33;;;0.33;;
37483;SDS011;23337;52.212;9.926;2023-07-31T02:53:36;0.47;;;0.40;;
37483;SDS011;23337;52.212;9.926;2023-07-31T02:56:02;2.20;;;0.57;;
37483;SDS011;23337;52.212;9.926;2023-07-31T02:58:28;1.60;;;0.40;;
37483;SDS011;23337;52.212;9.926;2023-07-31T03:00:54;0.60;;;0.60;;
37483;SDS011;23337;52.212;9.926;2023-07-31T03:03:20;0.97;;;0.50;;
37483;SDS011;23337;52.212;9.926;2023-07-31T03:05:46;0.37;;;0.37;;
37483;SDS011;23337;52.212;9.926;2023-07-31T03:08:12;1.70;;;0.30;;
37483;SDS011;23337;52.212;9.926;2023-07-31T03:10:38;0.40;;;0.37;;
37483;SDS011;23337;52.212;9.926;2023-07-31T03:13:04;1.13;;;0.47;;
37483;SDS011;23337;52.212;9.926;2023-07-31T03:15:30;0.97;;;0.30;;
37483;SDS011;23337;52.212;9.926;2023-07-31T03:17:56;0.33;;;0.30;;
37483;SDS011;23337;52.212;9.926;2023-07-31T03:20:22;0.60;;;0.30;;
37483;SDS011;23337;52.212;9.926;2023-07-31T03:22:48;0.47;;;0.20;;
37483;SDS011;23337;52.212;9.926;2023-07-31T03:25:15;0.93;;;0.50;;
37483;SDS011;23337;52.212;9.926;2023-07-31T03:27:41;1.60;;;0.50;;
37483;SDS011;23337;52.212;9.926;2023-07-31T03:30:07;0.40;;;0.37;;
37483;SDS011;23337;52.212;9.926;2023-07-31T03:32:33;0.73;;;0.57;;
37483;SDS011;23337;52.212;9.926;2023-07-31T03:34:59;1.43;;;0.60;;
37483;SDS011;23337;52.212;9.926;2023-07-31T03:37:25;2.83;;;0.57;;
37483;SDS011;23337;52.212;9.926;2023-07-31T03:39:51;0.80;;;0.50;;
37483;SDS011;23337;52.212;9.926;2023-07-31T03:42:17;0.60;;;0.60;;
37483;SDS011;23337;52.212;9.926;2023-07-31T03:44:43;0.63;;;0.57;;
37483;SDS011;23337;52.212;9.926;2023-07-31T03:47:09;0.73;;;0.63;;
37483;SDS011;23337;52.212;9.926;2023-07-31T03:49:35;1.67;;;0.60;;
37483;SDS011;23337;52.212;9.926;2023-07-31T03:52:01;1.53;;;0.90;;
37483;SDS011;23337;52.212;9.926;2023-07-31T03:54:27;2.07;;;0.57;;
37483;SDS011;23337;52.212;9.926;2023-07-31T03:56:53;2.10;;;0.70;;
37483;SDS011;23337;52.212;9.926;2023-07-31T03:59:19;2.23;;;0.63;;
37483;SDS011;23337;52.212;9.926;2023-07-31T04:01:45;0.93;;;0.67;;
37483;SDS011;23337;52.212;9.926;2023-07-31T04:04:11;0.93;;;0.50;;
37483;SDS011;23337;52.212;9.926;2023-07-31T04:06:37;1.30;;;0.80;;
37483;SDS011;23337;52.212;9.926;2023-07-31T04:09:03;1.87;;;1.30;;
37483;SDS011;23337;52.212;9.926;2023-07-31T04:11:29;1.27;;;0.53;;
37483;SDS011;23337;52.212;9.926;2023-07-31T04:13:55;1.33;;;0.50;;
37483;SDS011;23337;52.212;9.926;2023-07-31T04:16:21;0.93;;;0.47;;
37483;SDS011;23337;52.212;9.926;2023-07-31T04:18:47;0.83;;;0.57;;
37483;SDS011;23337;52.212;9.926;2023-07-31T04:21:13;2.07;;;0.60;;
37483;SDS011;23337;52.212;9.926;2023-07-31T04:23:39;0.67;;;0.50;;
37483;SDS011;23337;52.212;9.926;2023-07-31T04:26:04;0.93;;;0.70;;
37483;SDS011;23337;52.212;9.926;2023-07-31T04:28:30;1.20;;;0.50;;
37483;SDS011;23337;52.212;9.926;2023-07-31T04:30:56;0.93;;;0.50;;
37483;SDS011;23337;52.212;9.926;2023-07-31T04:33:23;1.27;;;0.43;;
37483;SDS011;23337;52.212;9.926;2023-07-31T04:35:52;0.87;;;0.40;;
37483;SDS011;23337;52.212;9.926;2023-07-31T04:38:19;1.13;;;0.40;;
37483;SDS011;23337;52.212;9.926;2023-07-31T04:40:45;0.93;;;0.50;;
37483;SDS011;23337;52.212;9.926;2023-07-31T04:43:11;2.33;;;0.30;;
37483;SDS011;23337;52.212;9.926;2023-07-31T04:45:37;0.67;;;0.20;;
37483;SDS011;23337;52.212;9.926;2023-07-31T04:48:03;0.90;;;0.30;;
37483;SDS011;23337;52.212;9.926;2023-07-31T04:50:29;0.73;;;0.20;;
37483;SDS011;23337;52.212;9.926;2023-07-31T04:52:55;1.00;;;0.27;;
37483;SDS011;23337;52.212;9.926;2023-07-31T04:55:21;1.27;;;0.10;;
37483;SDS011;23337;52.212;9.926;2023-07-31T04:57:47;1.80;;;0.43;;
37483;SDS011;23337;52.212;9.926;2023-07-31T05:00:13;0.40;;;0.40;;
37483;SDS011;23337;52.212;9.926;2023-07-31T05:02:39;0.80;;;0.40;;
37483;SDS011;23337;52.212;9.926;2023-07-31T05:05:05;1.23;;;0.60;;
37483;SDS011;23337;52.212;9.926;2023-07-31T05:07:31;1.47;;;0.60;;
37483;SDS011;23337;52.212;9.926;2023-07-31T05:09:57;1.43;;;1.20;;
37483;SDS011;23337;52.212;9.926;2023-07-31T05:12:23;2.23;;;1.33;;
37483;SDS011;23337;52.212;9.926;2023-07-31T05:14:49;1.83;;;1.73;;
37483;SDS011;23337;52.212;9.926;2023-07-31T05:17:15;3.13;;;2.37;;
37483;SDS011;23337;52.212;9.926;2023-07-31T05:19:41;3.80;;;2.50;;
37483;SDS011;23337;52.212;9.926;2023-07-31T05:22:07;4.77;;;2.00;;
37483;SDS011;23337;52.212;9.926;2023-07-31T05:24:33;6.27;;;2.60;;
37483;SDS011;23337;52.212;9.926;2023-07-31T05:26:59;3.87;;;2.40;;
37483;SDS011;23337;52.212;9.926;2023-07-31T05:29:24;4.50;;;3.17;;
37483;SDS011;23337;52.212;9.926;2023-07-31T05:31:50;5.43;;;4.17;;
37483;SDS011;23337;52.212;9.926;2023-07-31T05:34:16;5.07;;;4.23;;
37483;SDS011;23337;52.212;9.926;2023-07-31T05:36:42;5.40;;;4.37;;
37483;SDS011;23337;52.212;9.926;2023-07-31T05:39:08;5.00;;;4.40;;
37483;SDS011;23337;52.212;9.926;2023-07-31T05:41:34;6.57;;;5.00;;
37483;SDS011;23337;52.212;9.926;2023-07-31T05:44:01;7.30;;;5.10;;
37483;SDS011;23337;52.212;9.926;2023-07-31T05:46:27;7.07;;;6.03;;
37483;SDS011;23337;52.212;9.926;2023-07-31T05:48:52;7.90;;;5.27;;
37483;SDS011;23337;52.212;9.926;2023-07-31T05:51:18;7.00;;;5.97;;
37483;SDS011;23337;52.212;9.926;2023-07-31T05:53:44;7.03;;;4.87;;
37483;SDS011;23337;52.212;9.926;2023-07-31T05:56:10;10.03;;;6.53;;
37483;SDS011;23337;52.212;9.926;2023-07-31T05:58:36;8.00;;;6.23;;
37483;SDS011;23337;52.212;9.926;2023-07-31T06:01:02;8.50;;;5.33;;
37483;SDS011;23337;52.212;9.926;2023-07-31T06:03:28;9.00;;;5.83;;
37483;SDS011;23337;52.212;9.926;2023-07-31T06:05:55;7.40;;;4.97;;
37483;SDS011;23337;52.212;9.926;2023-07-31T06:08:21;6.60;;;4.70;;
37483;SDS011;23337;52.212;9.926;2023-07-31T06:10:47;5.23;;;4.73;;
37483;SDS011;23337;52.212;9.926;2023-07-31T06:13:13;5.37;;;4.23;;
37483;SDS011;23337;52.212;9.926;2023-07-31T06:15:39;4.67;;;3.97;;
37483;SDS011;23337;52.212;9.926;2023-07-31T06:18:05;10.13;;;4.90;;
37483;SDS011;23337;52.212;9.926;2023-07-31T06:20:32;6.20;;;4.43;;
37483;SDS011;23337;52.212;9.926;2023-07-31T06:22:59;7.77;;;5.43;;
37483;SDS011;23337;52.212;9.926;2023-07-31T06:25:25;5.57;;;4.67;;
37483;SDS011;23337;52.212;9.926;2023-07-31T06:27:51;5.50;;;4.57;;
37483;SDS011;23337;52.212;9.926;2023-07-31T06:30:16;6.63;;;4.77;;
37483;SDS011;23337;52.212;9.926;2023-07-31T06:32:42;7.07;;;5.17;;
37483;SDS011;23337;52.212;9.926;2023-07-31T06:35:08;8.03;;;6.10;;
37483;SDS011;23337;52.212;9.926;2023-07-31T06:37:35;7.13;;;5.97;;
37483;SDS011;23337;52.212;9.926;2023-07-31T06:40:01;7.90;;;5.83;;
37483;SDS011;23337;52.212;9.926;2023-07-31T06:42:27;8.70;;;6.43;;
37483;SDS011;23337;52.212;9.926;2023-07-31T06:44:53;9.53;;;6.17;;
37483;SDS011;23337;52.212;9.926;2023-07-31T06:47:19;8.63;;;6.90;;
37483;SDS011;23337;52.212;9.926;2023-07-31T06:49:45;9.13;;;7.60;;
37483;SDS011;23337;52.212;9.926;2023-07-31T06:52:11;12.53;;;7.53;;
37483;SDS011;23337;52.212;9.926;2023-07-31T06:54:37;11.13;;;7.83;;
37483;SDS011;23337;52.212;9.926;2023-07-31T06:57:02;9.90;;;7.87;;
37483;SDS011;23337;52.212;9.926;2023-07-31T06:59:28;11.97;;;7.80;;
37483;SDS011;23337;52.212;9.926;2023-07-31T07:01:54;12.53;;;8.60;;
37483;SDS011;23337;52.212;9.926;2023-07-31T07:04:20;12.53;;;8.87;;
37483;SDS011;23337;52.212;9.926;2023-07-31T07:06:46;11.57;;;9.07;;
37483;SDS011;23337;52.212;9.926;2023-07-31T07:09:12;9.77;;;8.30;;
37483;SDS011;23337;52.212;9.926;2023-07-31T07:11:38;11.23;;;8.63;;
37483;SDS011;23337;52.212;9.926;2023-07-31T07:14:04;16.47;;;9.47;;
37483;SDS011;23337;52.212;9.926;2023-07-31T07:16:30;14.43;;;8.50;;
37483;SDS011;23337;52.212;9.926;2023-07-31T07:18:56;10.00;;;8.00;;
37483;SDS011;23337;52.212;9.926;2023-07-31T07:21:22;9.80;;;8.07;;
37483;SDS011;23337;52.212;9.926;2023-07-31T07:23:48;11.77;;;7.70;;
37483;SDS011;23337;52.212;9.926;2023-07-31T07:26:14;10.27;;;7.37;;
37483;SDS011;23337;52.212;9.926;2023-07-31T07:28:40;9.60;;;7.33;;
37483;SDS011;23337;52.212;9.926;2023-07-31T07:31:06;10.57;;;7.40;;
37483;SDS011;23337;52.212;9.926;2023-07-31T07:33:32;12.87;;;7.37;;
37483;SDS011;23337;52.212;9.926;2023-07-31T07:36:01;9.33;;;6.80;;
37483;SDS011;23337;52.212;9.926;2023-07-31T07:38:27;9.90;;;7.10;;
37483;SDS011;23337;52.212;9.926;2023-07-31T07:40:53;12.30;;;7.20;;
37483;SDS011;23337;52.212;9.926;2023-07-31T07:43:19;19.57;;;7.43;;
37483;SDS011;23337;52.212;9.926;2023-07-31T07:45:45;11.93;;;7.27;;
37483;SDS011;23337;52.212;9.926;2023-07-31T07:48:11;9.70;;;6.80;;
37483;SDS011;23337;52.212;9.926;2023-07-31T07:50:38;9.23;;;6.13;;
37483;SDS011;23337;52.212;9.926;2023-07-31T07:53:04;10.63;;;6.53;;
37483;SDS011;23337;52.212;9.926;2023-07-31T07:55:30;11.17;;;6.50;;
37483;SDS011;23337;52.212;9.926;2023-07-31T07:57:57;11.60;;;5.90;;
37483;SDS011;23337;52.212;9.926;2023-07-31T08:00:22;8.30;;;5.67;;
37483;SDS011;23337;52.212;9.926;2023-07-31T08:02:48;7.90;;;5.67;;
37483;SDS011;23337;52.212;9.926;2023-07-31T08:05:14;8.87;;;5.77;;
37483;SDS011;23337;52.212;9.926;2023-07-31T08:07:42;8.93;;;5.37;;
37483;SDS011;23337;52.212;9.926;2023-07-31T08:10:08;11.27;;;5.90;;
37483;SDS011;23337;52.212;9.926;2023-07-31T08:12:34;9.67;;;6.33;;
37483;SDS011;23337;52.212;9.926;2023-07-31T08:15:00;6.73;;;5.50;;
37483;SDS011;23337;52.212;9.926;2023-07-31T08:17:26;9.37;;;5.90;;
37483;SDS011;23337;52.212;9.926;2023-07-31T08:19:52;9.17;;;5.77;;
37483;SDS011;23337;52.212;9.926;2023-07-31T08:22:18;7.43;;;5.23;;
37483;SDS011;23337;52.212;9.926;2023-07-31T08:24:44;10.00;;;6.67;;
37483;SDS011;23337;52.212;9.926;2023-07-31T08:27:10;9.40;;;6.13;;
37483;SDS011;23337;52.212;9.926;2023-07-31T08:29:36;9.03;;;5.67;;
37483;SDS011;23337;52.212;9.926;2023-07-31T08:32:02;10.70;;;6.30;;
37483;SDS011;23337;52.212;9.926;2023-07-31T08:34:28;11.03;;;6.50;;
37483;SDS011;23337;52.212;9.926;2023-07-31T08:36:54;6.60;;;5.33;;
37483;SDS011;23337;52.212;9.926;2023-07-31T08:39:20;8.17;;;6.03;;
37483;SDS011;23337;52.212;9.926;2023-07-31T08:41:47;9.13;;;6.80;;
37483;SDS011;23337;52.212;9.926;2023-07-31T08:44:13;8.70;;;5.93;;
37483;SDS011;23337;52.212;9.926;2023-07-31T08:46:39;8.63;;;5.80;;
37483;SDS011;23337;52.212;9.926;2023-07-31T08:49:06;7.00;;;5.13;;
37483;SDS011;23337;52.212;9.926;2023-07-31T08:51:36;6.43;;;4.57;;
37483;SDS011;23337;52.212;9.926;2023-07-31T08:54:02;7.83;;;4.37;;
37483;SDS011;23337;52.212;9.926;2023-07-31T08:56:31;9.73;;;6.13;;
37483;SDS011;23337;52.212;9.926;2023-07-31T08:58:58;6.37;;;4.60;;
37483;SDS011;23337;52.212;9.926;2023-07-31T09:01:25;6.20;;;3.90;;
37483;SDS011;23337;52.212;9.926;2023-07-31T09:03:51;7.53;;;5.03;;
37483;SDS011;23337;52.212;9.926;2023-07-31T09:06:18;5.37;;;3.70;;
37483;SDS011;23337;52.212;9.926;2023-07-31T09:08:44;5.00;;;3.73;;
37483;SDS011;23337;52.212;9.926;2023-07-31T09:11:10;5.87;;;3.27;;
37483;SDS011;23337;52.212;9.926;2023-07-31T09:13:38;5.20;;;3.37;;
37483;SDS011;23337;52.212;9.926;2023-07-31T09:16:05;4.03;;;3.57;;
37483;SDS011;23337;52.212;9.926;2023-07-31T09:18:31;3.40;;;3.10;;
37483;SDS011;23337;52.212;9.926;2023-07-31T09:21:04;5.63;;;2.77;;
37483;SDS011;23337;52.212;9.926;2023-07-31T09:23:43;4.43;;;2.80;;
37483;SDS011;23337;52.212;9.926;2023-07-31T09:26:09;4.47;;;2.07;;
37483;SDS011;23337;52.212;9.926;2023-07-31T09:28:35;4.23;;;2.63;;
37483;SDS011;23337;52.212;9.926;2023-07-31T09:31:02;3.73;;;2.03;;
37483;SDS011;23337;52.212;9.926;2023-07-31T09:33:28;3.57;;;2.50;;
37483;SDS011;23337;52.212;9.926;2023-07-31T09:35:54;2.93;;;2.30;;
37483;SDS011;23337;52.212;9.926;2023-07-31T09:38:19;2.30;;;1.80;;
37483;SDS011;23337;52.212;9.926;2023-07-31T09:40:46;2.63;;;2.10;;
37483;SDS011;23337;52.212;9.926;2023-07-31T09:43:13;3.10;;;2.00;;
37483;SDS011;23337;52.212;9.926;2023-07-31T09:45:42;2.83;;;2.00;;
37483;SDS011;23337;52.212;9.926;2023-07-31T09:50:38;2.83;;;2.20;;
37483;SDS011;23337;52.212;9.926;2023-07-31T09:53:04;2.97;;;2.10;;
37483;SDS011;23337;52.212;9.926;2023-07-31T09:55:30;3.00;;;2.43;;
37483;SDS011;23337;52.212;9.926;2023-07-31T09:57:59;3.67;;;2.10;;
37483;SDS011;23337;52.212;9.926;2023-07-31T10:00:28;4.33;;;2.40;;
37483;SDS011;23337;52.212;9.926;2023-07-31T10:02:55;4.27;;;2.30;;
37483;SDS011;23337;52.212;9.926;2023-07-31T10:05:23;3.50;;;2.40;;
37483;SDS011;23337;52.212;9.926;2023-07-31T10:07:54;4.77;;;2.60;;
37483;SDS011;23337;52.212;9.926;2023-07-31T10:10:21;2.73;;;2.30;;
37483;SDS011;23337;52.212;9.926;2023-07-31T10:12:48;5.50;;;3.20;;
37483;SDS011;23337;52.212;9.926;2023-07-31T10:15:15;4.97;;;3.43;;
37483;SDS011;23337;52.212;9.926;2023-07-31T10:17:41;2.90;;;2.20;;
37483;SDS011;23337;52.212;9.926;2023-07-31T10:20:07;3.33;;;2.40;;
37483;SDS011;23337;52.212;9.926;2023-07-31T10:22:33;3.00;;;2.53;;
37483;SDS011;23337;52.212;9.926;2023-07-31T10:25:00;3.40;;;2.97;;
37483;SDS011;23337;52.212;9.926;2023-07-31T10:27:26;2.80;;;2.53;;
37483;SDS011;23337;52.212;9.926;2023-07-31T10:29:52;3.33;;;2.50;;
37483;SDS011;23337;52.212;9.926;2023-07-31T10:32:19;6.00;;;2.80;;
37483;SDS011;23337;52.212;9.926;2023-07-31T10:34:46;3.97;;;2.83;;
37483;SDS011;23337;52.212;9.926;2023-07-31T10:37:19;3.10;;;2.60;;
37483;SDS011;23337;52.212;9.926;2023-07-31T10:42:37;3.23;;;2.70;;
37483;SDS011;23337;52.212;9.926;2023-07-31T10:45:05;3.83;;;2.47;;
37483;SDS011;23337;52.212;9.926;2023-07-31T10:47:36;3.00;;;2.63;;
37483;SDS011;23337;52.212;9.926;2023-07-31T10:50:21;2.33;;;2.13;;
37483;SDS011;23337;52.212;9.926;2023-07-31T10:52:49;3.13;;;2.63;;
37483;SDS011;23337;52.212;9.926;2023-07-31T10:57:50;4.30;;;2.43;;
37483;SDS011;23337;52.212;9.926;2023-07-31T11:05:43;4.13;;;2.60;;
37483;SDS011;23337;52.212;9.926;2023-07-31T11:10:42;4.20;;;2.50;;
37483;SDS011;23337;52.212;9.926;2023-07-31T11:13:08;3.17;;;2.20;;
37483;SDS011;23337;52.212;9.926;2023-07-31T11:15:34;4.87;;;2.40;;
37483;SDS011;23337;52.212;9.926;2023-07-31T11:18:00;3.33;;;2.20;;
37483;SDS011;23337;52.212;9.926;2023-07-31T11:20:31;4.60;;;2.00;;
37483;SDS011;23337;52.212;9.926;2023-07-31T11:23:03;4.63;;;2.30;;
37483;SDS011;23337;52.212;9.926;2023-07-31T11:25:30;2.40;;;2.00;;
37483;SDS011;23337;52.212;9.926;2023-07-31T11:27:57;3.77;;;2.30;;
37483;SDS011;23337;52.212;9.926;2023-07-31T11:30:23;3.63;;;2.53;;
37483;SDS011;23337;52.212;9.926;2023-07-31T11:32:49;3.60;;;2.33;;
37483;SDS011;23337;52.212;9.926;2023-07-31T11:35:16;3.27;;;1.90;;
37483;SDS011;23337;52.212;9.926;2023-07-31T11:37:43;4.07;;;2.30;;
37483;SDS011;23337;52.212;9.926;2023-07-31T11:40:09;4.93;;;2.10;;
37483;SDS011;23337;52.212;9.926;2023-07-31T11:42:35;4.37;;;2.87;;
37483;SDS011;23337;52.212;9.926;2023-07-31T11:45:02;3.30;;;2.03;;
37483;SDS011;23337;52.212;9.926;2023-07-31T11:47:28;2.07;;;1.60;;
37483;SDS011;23337;52.212;9.926;2023-07-31T11:49:55;2.67;;;1.90;;
37483;SDS011;23337;52.212;9.926;2023-07-31T11:52:21;3.77;;;2.10;;
37483;SDS011;23337;52.212;9.926;2023-07-31T11:54:48;1.67;;;1.47;;
37483;SDS011;23337;52.212;9.926;2023-07-31T11:57:15;3.87;;;1.90;;
37483;SDS011;23337;52.212;9.926;2023-07-31T11:59:41;2.37;;;1.80;;
37483;SDS011;23337;52.212;9.926;2023-07-31T12:02:07;2.20;;;1.87;;
37483;SDS011;23337;52.212;9.926;2023-07-31T12:04:34;1.80;;;1.70;;
37483;SDS011;23337;52.212;9.926;2023-07-31T12:07:00;2.80;;;1.60;;
37483;SDS011;23337;52.212;9.926;2023-07-31T12:09:26;2.83;;;2.07;;
37483;SDS011;23337;52.212;9.926;2023-07-31T12:11:52;3.63;;;2.00;;
37483;SDS011;23337;52.212;9.926;2023-07-31T12:14:25;2.63;;;1.63;;
37483;SDS011;23337;52.212;9.926;2023-07-31T12:16:54;1.57;;;1.47;;
37483;SDS011;23337;52.212;9.926;2023-07-31T12:19:21;1.80;;;1.50;;
37483;SDS011;23337;52.212;9.926;2023-07-31T12:21:47;3.60;;;1.80;;
37483;SDS011;23337;52.212;9.926;2023-07-31T12:24:13;2.33;;;2.10;;
37483;SDS011;23337;52.212;9.926;2023-07-31T12:26:39;2.53;;;1.60;;
37483;SDS011;23337;52.212;9.926;2023-07-31T12:29:06;2.80;;;1.60;;
37483;SDS011;23337;52.212;9.926;2023-07-31T12:31:33;2.47;;;2.27;;
37483;SDS011;23337;52.212;9.926;2023-07-31T12:34:00;2.73;;;1.60;;
37483;SDS011;23337;52.212;9.926;2023-07-31T12:36:27;1.87;;;1.40;;
37483;SDS011;23337;52.212;9.926;2023-07-31T12:38:55;2.10;;;1.53;;
37483;SDS011;23337;52.212;9.926;2023-07-31T12:41:23;3.23;;;1.50;;
37483;SDS011;23337;52.212;9.926;2023-07-31T12:43:49;2.13;;;1.57;;
37483;SDS011;23337;52.212;9.926;2023-07-31T12:46:15;2.33;;;1.50;;
37483;SDS011;23337;52.212;9.926;2023-07-31T12:48:42;1.97;;;1.47;;
37483;SDS011;23337;52.212;9.926;2023-07-31T12:51:08;1.23;;;0.97;;
37483;SDS011;23337;52.212;9.926;2023-07-31T12:53:33;1.37;;;1.03;;
37483;SDS011;23337;52.212;9.926;2023-07-31T12:56:00;1.97;;;1.30;;
37483;SDS011;23337;52.212;9.926;2023-07-31T12:58:26;1.43;;;1.23;;
37483;SDS011;23337;52.212;9.926;2023-07-31T13:00:52;1.57;;;0.90;;
37483;SDS011;23337;52.212;9.926;2023-07-31T13:03:18;0.80;;;0.80;;
37483;SDS011;23337;52.212;9.926;2023-07-31T13:05:44;1.90;;;1.17;;
37483;SDS011;23337;52.212;9.926;2023-07-31T13:08:10;1.27;;;0.70;;
37483;SDS011;23337;52.212;9.926;2023-07-31T13:10:36;0.70;;;0.70;;
37483;SDS011;23337;52.212;9.926;2023-07-31T13:13:02;1.13;;;0.73;;
37483;SDS011;23337;52.212;9.926;2023-07-31T13:15:28;1.30;;;0.80;;
37483;SDS011;23337;52.212;9.926;2023-07-31T13:17:54;1.03;;;0.40;;
37483;SDS011;23337;52.212;9.926;2023-07-31T13:20:20;0.77;;;0.60;;
37483;SDS011;23337;52.212;9.926;2023-07-31T13:22:46;0.90;;;0.77;;
37483;SDS011;23337;52.212;9.926;2023-07-31T13:25:12;0.90;;;0.50;;
37483;SDS011;23337;52.212;9.926;2023-07-31T13:27:39;0.80;;;0.53;;
37483;SDS011;23337;52.212;9.926;2023-07-31T13:30:05;1.20;;;0.33;;
37483;SDS011;23337;52.212;9.926;2023-07-31T13:32:31;0.47;;;0.47;;
37483;SDS011;23337;52.212;9.926;2023-07-31T13:34:57;2.93;;;0.60;;
37483;SDS011;23337;52.212;9.926;2023-07-31T13:37:23;1.10;;;0.50;;
37483;SDS011;23337;52.212;9.926;2023-07-31T13:39:49;0.70;;;0.50;;
37483;SDS011;23337;52.212;9.926;2023-07-31T13:42:15;1.00;;;0.50;;
37483;SDS011;23337;52.212;9.926;2023-07-31T13:44:41;1.90;;;0.63;;
37483;SDS011;23337;52.212;9.926;2023-07-31T13:47:07;0.47;;;0.40;;
37483;SDS011;23337;52.212;9.926;2023-07-31T13:49:34;0.37;;;0.30;;
37483;SDS011;23337;52.212;9.926;2023-07-31T13:52:00;1.00;;;0.50;;
37483;SDS011;23337;52.212;9.926;2023-07-31T13:54:26;0.33;;;0.33;;
37483;SDS011;23337;52.212;9.926;2023-07-31T13:56:52;1.87;;;0.47;;
37483;SDS011;23337;52.212;9.926;2023-07-31T13:59:19;0.50;;;0.40;;
37483;SDS011;23337;52.212;9.926;2023-07-31T14:01:45;0.23;;;0.23;;
37483;SDS011;23337;52.212;9.926;2023-07-31T14:04:11;0.63;;;0.50;;
37483;SDS011;23337;52.212;9.926;2023-07-31T14:06:37;0.70;;;0.40;;
37483;SDS011;23337;52.212;9.926;2023-07-31T14:09:03;1.00;;;0.67;;
37483;SDS011;23337;52.212;9.926;2023-07-31T14:11:30;0.50;;;0.40;;
37483;SDS011;23337;52.212;9.926;2023-07-31T14:13:56;0.50;;;0.40;;
37483;SDS011;23337;52.212;9.926;2023-07-31T14:16:23;0.50;;;0.50;;
37483;SDS011;23337;52.212;9.926;2023-07-31T14:18:49;1.40;;;0.60;;
37483;SDS011;23337;52.212;9.926;2023-07-31T14:21:15;0.50;;;0.50;;
37483;SDS011;23337;52.212;9.926;2023-07-31T14:23:41;1.03;;;0.60;;
37483;SDS011;23337;52.212;9.926;2023-07-31T14:26:07;0.83;;;0.60;;
37483;SDS011;23337;52.212;9.926;2023-07-31T14:28:33;1.13;;;0.57;;
37483;SDS011;23337;52.212;9.926;2023-07-31T14:30:59;0.47;;;0.47;;
37483;SDS011;23337;52.212;9.926;2023-07-31T14:33:25;0.73;;;0.67;;
37483;SDS011;23337;52.212;9.926;2023-07-31T14:35:51;0.33;;;0.30;;
37483;SDS011;23337;52.212;9.926;2023-07-31T14:38:17;1.30;;;0.57;;
37483;SDS011;23337;52.212;9.926;2023-07-31T14:40:43;0.70;;;0.50;;
37483;SDS011;23337;52.212;9.926;2023-07-31T14:43:09;1.13;;;0.20;;
37483;SDS011;23337;52.212;9.926;2023-07-31T14:45:35;1.67;;;0.70;;
37483;SDS011;23337;52.212;9.926;2023-07-31T14:48:01;2.40;;;0.70;;
37483;SDS011;23337;52.212;9.926;2023-07-31T14:50:27;1.33;;;0.90;;
37483;SDS011;23337;52.212;9.926;2023-07-31T14:52:53;1.27;;;0.87;;
37483;SDS011;23337;52.212;9.926;2023-07-31T14:55:19;1.67;;;1.10;;
37483;SDS011;23337;52.212;9.926;2023-07-31T14:57:45;1.00;;;0.90;;
37483;SDS011;23337;52.212;9.926;2023-07-31T15:00:11;1.10;;;1.00;;
37483;SDS011;23337;52.212;9.926;2023-07-31T15:02:37;1.90;;;1.00;;